createdAt,value
2023-10-09T00:02:45.495Z,89.15
2023-10-09T00:05:47.985Z,89.57
2023-10-09T00:08:56.333Z,89.67
2023-10-09T00:11:59.210Z,89.06
2023-10-09T00:15:11.056Z,88.57
2023-10-09T00:18:13.681Z,88.64
2023-10-09T00:21:21.801Z,89.60
2023-10-09T00:24:27.118Z,89.14
2023-10-09T00:27:32.892Z,89.32
2023-10-09T00:30:36.932Z,88.19
2023-10-09T00:33:39.256Z,88.00
2023-10-09T00:36:52.066Z,88.78
2023-10-09T00:39:58.299Z,90.05
2023-10-09T00:43:06.010Z,89.22
2023-10-09T00:46:21.651Z,88.82
2023-10-09T00:49:23.792Z,88.90
2023-10-09T00:52:40.636Z,88.55
2023-10-09T00:55:47.041Z,88.33
2023-10-09T00:58:57.115Z,88.05
2023-10-09T01:02:20.802Z,87.78
2023-10-09T01:05:27.684Z,87.80
2023-10-09T01:08:42.655Z,87.68
2023-10-09T01:11:49.437Z,87.73
2023-10-09T01:14:56.869Z,88.08
2023-10-09T01:18:00.407Z,87.95
2023-10-09T01:21:03.961Z,88.74
2023-10-09T01:24:09.920Z,88.45
2023-10-09T01:27:18.449Z,88.13
2023-10-09T01:30:21.539Z,88.14
2023-10-09T01:33:25.335Z,88.34
2023-10-09T01:36:33.936Z,87.88
2023-10-09T01:39:42.888Z,88.25
2023-10-09T01:42:48.373Z,87.03
2023-10-09T01:45:53.338Z,86.78
2023-10-09T01:48:56.006Z,86.56
2023-10-09T01:52:05.313Z,86.84
2023-10-09T01:55:10.749Z,88.25
2023-10-09T01:58:22.060Z,87.13
2023-10-09T02:01:24.163Z,88.16
2023-10-09T02:04:26.407Z,88.06
2023-10-09T02:07:29.214Z,87.44
2023-10-09T02:10:31.308Z,87.57
2023-10-09T02:13:43.075Z,87.66
2023-10-09T02:16:45.336Z,88.45
2023-10-09T02:19:50.575Z,88.02
2023-10-09T02:22:54.477Z,87.33
2023-10-09T02:26:03.933Z,87.85
2023-10-09T02:29:16.421Z,87.63
2023-10-09T02:32:26.700Z,87.28
2023-10-09T02:35:39.443Z,87.20
2023-10-09T02:38:43.683Z,86.05
2023-10-09T02:41:51.366Z,86.19
2023-10-09T02:44:53.553Z,86.96
2023-10-09T02:47:57.287Z,86.66
2023-10-09T02:50:59.496Z,86.95
2023-10-09T02:54:19.952Z,86.90
2023-10-09T02:57:29.329Z,86.85
2023-10-09T03:00:32.951Z,87.33
2023-10-09T03:03:37.169Z,87.65
2023-10-09T03:06:51.304Z,87.27
2023-10-09T03:09:53.441Z,87.54
2023-10-09T03:12:55.676Z,87.12
2023-10-09T03:15:57.737Z,87.40
2023-10-09T03:19:00.981Z,86.87
2023-10-09T03:22:03.974Z,85.36
2023-10-09T03:25:12.663Z,86.67
2023-10-09T03:28:16.516Z,85.85
2023-10-09T03:31:18.642Z,86.17
2023-10-09T03:34:20.828Z,86.25
2023-10-09T03:37:23.482Z,86.05
2023-10-09T03:40:26.414Z,87.15
2023-10-09T03:43:33.541Z,87.03
2023-10-09T03:46:38.039Z,86.21
2023-10-09T03:49:40.594Z,87.67
2023-10-09T03:52:42.688Z,87.94
2023-10-09T03:55:45.180Z,86.86
2023-10-09T03:58:49.150Z,86.43
2023-10-09T04:01:54.248Z,86.36
2023-10-09T04:04:56.484Z,86.75
2023-10-09T04:08:03.578Z,86.97
2023-10-09T04:11:05.790Z,86.00
2023-10-09T04:14:13.492Z,85.66
2023-10-09T04:17:31.192Z,86.00
2023-10-09T04:20:45.387Z,85.19
2023-10-09T04:24:06.116Z,86.37
2023-10-09T04:27:09.877Z,85.75
2023-10-09T04:30:17.057Z,86.50
2023-10-09T04:33:29.709Z,86.58
2023-10-09T04:36:47.298Z,86.24
2023-10-09T04:39:50.310Z,86.77
2023-10-09T04:43:07.217Z,87.52
2023-10-09T04:46:13.836Z,88.36
2023-10-09T04:49:28.943Z,87.47
2023-10-09T04:52:31.257Z,87.74
2023-10-09T04:55:39.845Z,87.02
2023-10-09T04:58:42.124Z,87.35
2023-10-09T05:01:58.817Z,86.08
2023-10-09T05:05:33.382Z,86.25
2023-10-09T05:08:43.216Z,86.10
2023-10-09T05:11:54.737Z,86.70
2023-10-09T05:15:10.209Z,85.72
2023-10-09T05:18:17.508Z,85.67
2023-10-09T05:21:45.809Z,86.15
2023-10-09T05:24:48.518Z,87.05
2023-10-09T05:27:53.183Z,87.40
2023-10-09T05:31:07.606Z,86.79
2023-10-09T05:34:13.602Z,87.28
2023-10-09T05:37:19.255Z,87.05
2023-10-09T05:40:24.502Z,86.37
2023-10-09T05:43:45.039Z,87.63
2023-10-09T05:47:10.023Z,86.79
2023-10-09T05:50:15.173Z,85.29
2023-10-09T05:53:40.008Z,85.80
2023-10-09T05:57:00.750Z,84.01
2023-10-09T06:00:29.286Z,85.52
2023-10-09T06:03:50.279Z,85.24
2023-10-09T06:07:02.013Z,84.78
2023-10-09T06:10:18.604Z,84.32
2023-10-09T06:13:39.190Z,84.61
2023-10-09T06:16:43.466Z,85.07
2023-10-09T06:19:45.913Z,85.55
2023-10-09T06:22:57.708Z,86.29
2023-10-09T06:26:21.952Z,88.20
2023-10-09T06:29:42.369Z,92.29
2023-10-09T06:32:53.710Z,96.08
2023-10-09T06:35:56.038Z,100.00
2023-10-09T06:39:18.022Z,100.00
2023-10-09T06:42:35.689Z,100.00
2023-10-09T06:45:56.220Z,100.00
2023-10-09T06:48:58.711Z,98.31
2023-10-09T06:52:16.841Z,96.54
2023-10-09T06:55:20.905Z,99.71
2023-10-09T06:58:43.295Z,100.00
2023-10-09T07:01:47.363Z,100.00
2023-10-09T07:04:49.593Z,100.00
2023-10-09T07:07:56.597Z,100.00
2023-10-09T07:11:20.726Z,100.00
2023-10-09T07:14:34.059Z,100.00
2023-10-09T07:17:37.625Z,99.28
2023-10-09T07:20:40.809Z,99.49
2023-10-09T07:23:49.783Z,100.00
2023-10-09T07:26:54.620Z,100.00
2023-10-09T07:29:57.829Z,100.00
2023-10-09T07:33:13.695Z,100.00
2023-10-09T07:36:17.289Z,100.00
2023-10-09T07:39:24.046Z,100.00
2023-10-09T07:42:41.753Z,100.00
2023-10-09T07:45:50.056Z,100.00
2023-10-09T07:48:55.266Z,99.14
2023-10-09T07:52:00.112Z,98.93
2023-10-09T07:55:23.877Z,97.58
2023-10-09T07:58:26.812Z,98.31
2023-10-09T08:01:38.412Z,97.39
2023-10-09T08:04:50.613Z,96.46
2023-10-09T08:08:03.217Z,96.05
2023-10-09T08:11:30.522Z,95.53
2023-10-09T08:14:35.639Z,95.02
2023-10-09T08:17:38.870Z,96.08
2023-10-09T08:20:59.514Z,95.45
2023-10-09T08:24:06.298Z,94.60
2023-10-09T08:27:33.309Z,93.36
2023-10-09T08:30:48.579Z,93.47
2023-10-09T08:37:06.319Z,92.57
2023-10-09T08:40:10.357Z,91.66
2023-10-09T08:43:20.277Z,90.93
2023-10-09T08:46:30.081Z,90.82
2023-10-09T08:49:35.819Z,89.89
2023-10-09T08:52:39.216Z,90.28
2023-10-09T08:55:42.583Z,90.08
2023-10-09T08:58:45.061Z,89.57
2023-10-09T09:01:53.332Z,89.82
2023-10-09T09:04:55.625Z,90.51
2023-10-09T09:08:00.946Z,90.61
2023-10-09T09:11:24.504Z,89.21
2023-10-09T09:14:40.138Z,91.16
2023-10-09T09:17:43.722Z,91.07
2023-10-09T09:20:51.171Z,92.17
2023-10-09T09:24:00.662Z,91.61
2023-10-09T09:27:20.108Z,91.30
2023-10-09T09:30:27.169Z,90.39
2023-10-09T09:33:34.225Z,89.63
2023-10-09T09:36:36.571Z,89.06
2023-10-09T09:39:49.474Z,88.90
2023-10-09T09:43:12.174Z,87.84
2023-10-09T09:46:17.017Z,87.25
2023-10-09T09:49:22.926Z,87.27
2023-10-09T09:52:26.125Z,87.12
2023-10-09T09:55:35.388Z,86.83
2023-10-09T09:58:43.999Z,86.33
2023-10-09T10:01:58.239Z,86.70
2023-10-09T10:05:04.742Z,86.75
2023-10-09T10:08:13.359Z,86.35
2023-10-09T10:11:47.907Z,84.35
2023-10-09T10:14:58.521Z,82.90
2023-10-09T10:18:00.839Z,81.02
2023-10-09T10:21:15.409Z,81.34
2023-10-09T10:24:53.133Z,81.29
2023-10-09T10:28:43.712Z,82.20
2023-10-09T10:32:12.452Z,82.29
2023-10-09T10:35:16.530Z,81.92
2023-10-09T10:38:50.943Z,81.77
2023-10-09T10:41:57.540Z,81.89
2023-10-09T10:45:02.072Z,82.38
2023-10-09T10:48:10.664Z,81.86
2023-10-09T10:51:16.156Z,81.94
2023-10-09T10:54:34.811Z,81.98
2023-10-09T10:57:56.401Z,81.62
2023-10-09T11:00:58.570Z,82.04
2023-10-09T11:04:13.734Z,81.08
2023-10-09T11:07:25.999Z,81.73
2023-10-09T11:10:33.256Z,81.08
2023-10-09T11:13:36.641Z,81.59
2023-10-09T11:16:51.543Z,82.10
2023-10-09T11:19:54.144Z,81.80
2023-10-09T11:23:11.789Z,82.10
2023-10-09T11:26:29.753Z,81.90
2023-10-09T11:29:52.205Z,81.71
2023-10-09T11:33:15.408Z,81.72
2023-10-09T11:36:18.771Z,81.32
2023-10-09T11:39:33.129Z,81.67
2023-10-09T11:42:48.711Z,81.80
2023-10-09T11:45:57.577Z,82.34
2023-10-09T11:49:27.855Z,81.87
2023-10-09T11:52:37.026Z,82.05
2023-10-09T11:55:39.468Z,82.03
2023-10-09T11:58:42.126Z,81.47
2023-10-09T12:01:54.371Z,82.19
2023-10-09T12:04:57.225Z,82.17
2023-10-09T12:08:00.662Z,82.22
2023-10-09T12:11:09.920Z,82.59
2023-10-09T12:14:12.115Z,82.14
2023-10-09T12:17:14.367Z,81.91
2023-10-09T12:20:33.045Z,82.19
2023-10-09T12:23:38.387Z,82.36
2023-10-09T12:26:41.979Z,82.01
2023-10-09T12:29:50.368Z,81.93
2023-10-09T12:32:52.837Z,81.64
2023-10-09T12:36:02.526Z,81.71
2023-10-09T12:39:07.094Z,81.58
2023-10-09T12:42:10.222Z,81.81
2023-10-09T12:45:14.133Z,81.15
2023-10-09T12:48:16.409Z,80.31
2023-10-09T12:51:19.173Z,80.57
2023-10-09T12:54:21.540Z,79.50
2023-10-09T12:57:28.242Z,79.05
2023-10-09T13:00:33.671Z,78.86
2023-10-09T13:03:39.734Z,78.23
2023-10-09T13:06:45.365Z,77.59
2023-10-09T13:10:07.550Z,77.14
2023-10-09T13:13:13.090Z,77.68
2023-10-09T13:16:25.274Z,77.04
2023-10-09T13:19:27.686Z,76.67
2023-10-09T13:22:31.730Z,76.93
2023-10-09T13:25:40.873Z,77.51
2023-10-09T13:28:43.257Z,77.54
2023-10-09T13:31:49.253Z,77.22
2023-10-09T13:34:51.618Z,79.25
2023-10-09T13:37:56.929Z,81.59
2023-10-09T13:41:03.254Z,82.34
2023-10-09T13:44:05.685Z,82.96
2023-10-09T13:47:10.226Z,83.04
2023-10-09T13:50:12.648Z,82.87
2023-10-09T13:53:17.082Z,82.38
2023-10-09T13:56:20.608Z,82.35
2023-10-09T13:59:24.643Z,82.24
2023-10-09T14:02:30.208Z,82.51
2023-10-09T14:05:32.644Z,82.35
2023-10-09T14:08:34.688Z,82.76
2023-10-09T14:11:39.005Z,82.92
2023-10-09T14:14:48.650Z,82.72
2023-10-09T14:17:57.230Z,84.28
2023-10-09T14:21:06.298Z,86.82
2023-10-09T14:24:19.378Z,90.39
2023-10-09T14:27:24.927Z,96.21
2023-10-09T14:30:33.424Z,100.00
2023-10-09T14:33:38.051Z,100.00
2023-10-09T14:36:45.207Z,100.00
2023-10-09T14:39:50.573Z,100.00
2023-10-09T14:42:56.041Z,100.00
2023-10-09T14:46:00.469Z,100.00
2023-10-09T14:49:05.886Z,100.00
2023-10-09T14:52:10.105Z,100.00
2023-10-09T14:55:13.300Z,100.00
2023-10-09T14:58:16.732Z,100.00
2023-10-09T15:01:21.442Z,100.00
2023-10-09T15:04:26.785Z,100.00
2023-10-09T15:07:40.327Z,100.00
2023-10-09T15:10:48.884Z,100.00
2023-10-09T15:13:53.588Z,100.00
2023-10-09T15:16:58.403Z,99.51
2023-10-09T15:20:03.368Z,97.98
2023-10-09T15:23:07.274Z,96.64
2023-10-09T15:26:09.980Z,95.59
2023-10-09T15:29:12.326Z,95.09
2023-10-09T15:32:16.633Z,93.49
2023-10-09T15:35:20.280Z,92.72
2023-10-09T15:38:22.976Z,92.18
2023-10-09T15:41:31.415Z,92.21
2023-10-09T15:44:38.271Z,91.84
2023-10-09T15:47:41.149Z,91.89
2023-10-09T15:50:49.938Z,91.58
2023-10-09T15:53:52.999Z,90.91
2023-10-09T16:00:14.809Z,90.40
2023-10-09T16:03:17.158Z,89.69
2023-10-09T16:06:19.618Z,88.61
2023-10-09T16:09:22.594Z,88.99
2023-10-09T16:12:26.687Z,88.38
2023-10-09T16:15:29.671Z,88.38
2023-10-09T16:18:31.721Z,88.72
2023-10-09T16:21:33.890Z,88.75
2023-10-09T16:24:39.718Z,87.76
2023-10-09T16:27:47.856Z,88.21
2023-10-09T16:30:50.178Z,88.15
2023-10-09T16:33:52.271Z,87.06
2023-10-09T16:36:54.526Z,87.16
2023-10-09T16:39:59.562Z,87.50
2023-10-09T16:43:02.409Z,87.33
2023-10-09T16:46:09.816Z,86.46
2023-10-09T16:49:15.061Z,85.85
2023-10-09T16:52:17.169Z,85.40
2023-10-09T16:55:20.567Z,85.05
2023-10-09T16:58:23.135Z,85.02
2023-10-09T17:01:28.842Z,84.69
2023-10-09T17:04:31.396Z,85.23
2023-10-09T17:07:35.650Z,83.34
2023-10-09T17:10:46.447Z,84.06
2023-10-09T17:13:50.429Z,83.14
2023-10-09T17:16:55.866Z,82.84
2023-10-09T17:20:00.559Z,83.34
2023-10-09T17:23:02.661Z,83.00
2023-10-09T17:26:05.045Z,82.31
2023-10-09T17:29:08.766Z,82.67
2023-10-09T17:32:13.486Z,82.50
2023-10-09T17:35:16.262Z,82.52
2023-10-09T17:38:19.940Z,82.83
2023-10-09T17:41:23.180Z,82.56
2023-10-09T17:44:25.592Z,82.98
2023-10-09T17:47:32.035Z,83.37
2023-10-09T17:50:36.491Z,83.65
2023-10-09T17:53:39.891Z,82.71
2023-10-09T17:56:45.763Z,84.12
2023-10-09T17:59:47.903Z,84.02
2023-10-09T18:02:50.911Z,84.00
2023-10-09T18:05:56.530Z,84.07
2023-10-09T18:08:59.068Z,84.53
2023-10-09T18:12:04.590Z,83.75
2023-10-09T18:15:07.298Z,84.71
2023-10-09T18:18:18.005Z,84.19
2023-10-09T18:21:21.434Z,85.28
2023-10-09T18:24:26.082Z,86.55
2023-10-09T18:27:29.766Z,88.15
2023-10-09T18:30:33.037Z,87.93
2023-10-09T18:33:35.313Z,88.04
2023-10-09T18:36:40.058Z,87.86
2023-10-09T18:39:42.235Z,88.10
2023-10-09T18:42:44.259Z,87.95
2023-10-09T18:45:46.390Z,88.16
2023-10-09T18:48:48.415Z,87.46
2023-10-09T18:51:50.582Z,87.08
2023-10-09T18:54:52.607Z,85.86
2023-10-09T18:57:54.840Z,86.44
2023-10-09T19:01:03.382Z,86.23
2023-10-09T19:04:11.706Z,86.13
2023-10-09T19:07:14.854Z,86.36
2023-10-09T19:10:19.285Z,86.11
2023-10-09T19:13:22.961Z,85.78
2023-10-09T19:16:25.585Z,85.81
2023-10-09T19:19:28.010Z,86.21
2023-10-09T19:22:30.383Z,85.38
2023-10-09T19:25:34.180Z,85.18
2023-10-09T19:28:39.644Z,85.01
2023-10-09T19:31:44.192Z,85.60
2023-10-09T19:34:51.634Z,84.94
2023-10-09T19:37:55.058Z,84.90
2023-10-09T19:40:57.466Z,84.31
2023-10-09T19:44:00.574Z,83.99
2023-10-09T19:47:04.939Z,83.50
2023-10-09T19:50:15.789Z,83.37
2023-10-09T19:53:22.606Z,83.73
2023-10-09T19:56:25.988Z,83.06
2023-10-09T19:59:28.337Z,83.50
2023-10-09T20:02:30.518Z,82.98
2023-10-09T20:05:33.752Z,82.78
2023-10-09T20:08:36.058Z,83.58
2023-10-09T20:11:40.309Z,83.49
2023-10-09T20:14:44.146Z,83.13
2023-10-09T20:17:46.336Z,82.63
2023-10-09T20:20:53.762Z,82.65
2023-10-09T20:23:58.550Z,82.02
2023-10-09T20:27:00.733Z,81.65
2023-10-09T20:30:03.046Z,81.80
2023-10-09T20:33:06.776Z,81.96
2023-10-09T20:36:13.488Z,81.28
2023-10-09T20:39:17.636Z,81.90
2023-10-09T20:42:22.653Z,81.94
2023-10-09T20:45:25.250Z,81.23
2023-10-09T20:48:27.400Z,81.07
2023-10-09T20:51:34.474Z,81.93
2023-10-09T20:54:41.654Z,81.61
2023-10-09T20:57:43.958Z,81.03
2023-10-09T21:00:46.930Z,80.65
2023-10-09T21:03:50.654Z,79.38
2023-10-09T21:06:52.984Z,80.51
2023-10-09T21:09:55.446Z,79.90
2023-10-09T21:12:57.645Z,79.26
2023-10-09T21:16:00.026Z,79.46
2023-10-09T21:19:02.130Z,79.66
2023-10-09T21:22:04.544Z,78.44
2023-10-09T21:25:07.234Z,78.41
2023-10-09T21:28:09.477Z,78.95
2023-10-09T21:31:13.709Z,78.32
2023-10-09T21:34:16.080Z,78.85
2023-10-09T21:37:20.537Z,78.50
2023-10-09T21:40:31.377Z,78.05
2023-10-09T21:43:33.422Z,78.45
2023-10-09T21:46:35.562Z,78.38
2023-10-09T21:49:37.699Z,78.43
2023-10-09T21:52:40.148Z,78.87
2023-10-09T21:55:42.663Z,77.77
2023-10-09T21:58:44.782Z,78.67
2023-10-09T22:01:53.228Z,78.53
2023-10-09T22:04:55.314Z,77.94
2023-10-09T22:07:57.531Z,78.25
2023-10-09T22:10:59.615Z,77.72
2023-10-09T22:14:01.763Z,77.52
2023-10-09T22:17:04.681Z,77.24
2023-10-09T22:20:07.829Z,76.93
2023-10-09T22:23:15.028Z,77.83
2023-10-09T22:26:17.603Z,76.91
2023-10-09T22:29:20.047Z,76.76
2023-10-09T22:32:28.767Z,76.96
2023-10-09T22:35:35.260Z,77.40
2023-10-09T22:38:37.693Z,77.57
2023-10-09T22:41:41.946Z,77.30
2023-10-09T22:44:48.932Z,76.51
2023-10-09T22:47:52.852Z,77.20
2023-10-09T22:51:10.904Z,76.66
2023-10-09T22:54:13.431Z,76.84
2023-10-09T22:57:17.854Z,77.55
2023-10-09T23:00:40.323Z,76.39
2023-10-09T23:03:45.361Z,76.12
2023-10-09T23:06:47.706Z,75.95
2023-10-09T23:09:55.341Z,75.80
2023-10-09T23:13:15.440Z,76.18
2023-10-09T23:16:18.319Z,76.07
2023-10-09T23:19:38.646Z,75.90
2023-10-09T23:22:50.011Z,75.65
2023-10-09T23:26:07.017Z,75.96
2023-10-09T23:29:10.110Z,76.14
2023-10-09T23:32:33.507Z,75.40
2023-10-09T23:35:52.338Z,75.88
2023-10-09T23:39:11.518Z,75.91
2023-10-09T23:42:17.032Z,76.36
2023-10-09T23:45:22.140Z,76.10
2023-10-09T23:48:25.239Z,75.67
2023-10-09T23:51:28.325Z,76.45
2023-10-09T23:54:30.516Z,75.84
2023-10-09T23:57:43.230Z,75.76
